Maersk Walvis Bay — 3FWS9 — position and weather

sailwx.info

Track history (hours):
 
Tides and Currents Weather Stations Pressure Air Temp Water Temp Dewpoint Dewpoint Depression Visibility Wind Speed Wind Dir Waves Ship Positions

Maersk Walvis Bay

Last reported at 2017-Nov-12 05:33 UTC. Time now 2017-Nov-21 17:22 UTC.
Position N 10°20' W 075°33'.
Warning: this ship's position is 9 days out of date.

Length 172 m; draft 8.1 m.

Type: Ship. MMSI: 355480000.

Date/timePositionNaut miles runAvg speedWind from/ knotsBaromVisibWave heightAir tempDewpointWater temp
2017-Nov-12 05:33N 10°20' W 075°33'113.2
2017-Nov-12 05:30N 10°20' W 075°32'4 1.3
2017-Nov-12 02:18N 10°24' W 075°32'0 0.0
2017-Nov-12 02:00N 10°24' W 075°32'0 0.0
2017-Nov-12 01:30N 10°24' W 075°32'0 0.0
2017-Nov-12 01:00N 10°24' W 075°32'0 0.0
2017-Nov-12 00:30N 10°24' W 075°32'0 0.0
2017-Nov-12 00:00N 10°24' W 075°32'0 0.0
2017-Nov-11 23:30N 10°24' W 075°32'0 0.0
2017-Nov-11 23:00N 10°24' W 075°32'0 0.0
2017-Nov-11 22:30N 10°24' W 075°32'0 0.0
2017-Nov-11 22:00N 10°24' W 075°32'0 0.0
2017-Nov-11 21:24N 10°24' W 075°32'0 0.0
2017-Nov-11 21:00N 10°24' W 075°32'0 0.0
2017-Nov-11 20:27N 10°24' W 075°32'0 0.0
2017-Nov-11 20:00N 10°24' W 075°32'0 0.0
2017-Nov-11 19:30N 10°24' W 075°32'0 0.0
2017-Nov-11 19:00N 10°24' W 075°32'0 0.1
2017-Nov-11 18:30N 10°24' W 075°32'2 4.8
2017-Nov-11 18:00N 10°22' W 075°32'510.1
2017-Nov-11 17:30N 10°19' W 075°36'4 7.7
2017-Nov-11 17:00N 10°20' W 075°40'4 8.7
2017-Nov-11 16:30N 10°24' W 075°43'816.3
2017-Nov-11 16:00N 10°32' W 075°41'918.6
2017-Nov-11 15:30N 10°40' W 075°36'4518.1
2017-Nov-11 13:02N 11°05' W 074°59'117.6
2017-Nov-11 13:00N 11°05' W 074°58'713.8
2017-Nov-11 12:30N 11°07' W 074°51'612.3
2017-Nov-11 11:59N 11°02' W 074°48'4 0.8
2017-Nov-11 06:53N 10°58' W 074°46'0 0.0
2017-Nov-11 06:29N 10°58' W 074°46'0 0.0
2017-Nov-11 05:59N 10°58' W 074°46'0 0.0
2017-Nov-10 23:41N 10°58' W 074°46'0 0.0
2017-Nov-10 23:29N 10°58' W 074°46'0 0.0
2017-Nov-10 20:53N 10°58' W 074°46'0 0.0
2017-Nov-10 20:29N 10°58' W 074°46'0 0.0
2017-Nov-10 19:59N 10°58' W 074°46'0 0.0
2017-Nov-10 19:29N 10°58' W 074°46'0 0.0
2017-Nov-10 18:59N 10°58' W 074°46'0 0.4
2017-Nov-10 18:30N 10°58' W 074°45'3 6.7
2017-Nov-10 18:00N 11°01' W 074°47'4 8.4
2017-Nov-10 17:30N 11°04' W 074°50'4 8.6
2017-Nov-10 17:00N 11°08' W 074°53'2 4.2
2017-Nov-10 16:30N 11°07' W 074°55'5 9.3
2017-Nov-10 16:00N 11°06' W 074°59'  
2017-Nov-07 14:11N 11°13' W 074°59'317.6
2017-Nov-07 14:00N 11°13' W 074°56'917.1
2017-Nov-07 13:30N 11°13' W 074°47'918.4
2017-Nov-07 13:00N 11°13' W 074°38'1019.1
2017-Nov-07 12:30N 11°14' W 074°28'918.5
2017-Nov-07 12:00N 11°14' W 074°18'5 1.1
2017-Nov-07 07:16N 11°15' W 074°13'0 0.1
2017-Nov-07 06:52N 11°15' W 074°13'1 2.5
2017-Nov-07 06:28N 11°15' W 074°14'1 2.2
2017-Nov-07 06:00N 11°14' W 074°15'1 1.1
2017-Nov-07 05:27N 11°14' W 074°15'3 0.6
2017-Nov-07 01:17N 11°15' W 074°18'2 3.9
2017-Nov-07 00:49N 11°14' W 074°19'613.7
2017-Nov-07 00:23N 11°13' W 074°25'718.8
2017-Nov-07 00:00N 11°12' W 074°33'1018.9
2017-Nov-06 23:29N 11°11' W 074°42'917.8
2017-Nov-06 23:00N 11°09' W 074°51'5 9.7
2017-Nov-06 22:30N 11°04' W 074°51'713.4
2017-Nov-06 22:00N 10°60' W 074°46'2 3.3
2017-Nov-06 21:30N 10°58' W 074°46'0 0.0
2017-Nov-06 21:00N 10°58' W 074°46'0 0.0
2017-Nov-06 20:30N 10°58' W 074°46'0 0.0
2017-Nov-06 02:30N 10°58' W 074°46'0 0.0
2017-Nov-06 02:00N 10°58' W 074°46'0 0.0
2017-Nov-06 01:30N 10°58' W 074°46'0 0.0
2017-Nov-06 01:00N 10°58' W 074°46'0 0.0
2017-Nov-06 00:30N 10°58' W 074°46'0 0.0
2017-Nov-06 00:00N 10°58' W 074°46'0 0.0
2017-Nov-05 23:27N 10°58' W 074°46'0 0.0
2017-Nov-05 23:00N 10°58' W 074°46'0 0.0
2017-Nov-05 22:30N 10°58' W 074°46'0 0.0
2017-Nov-05 22:00N 10°58' W 074°46'0 0.0
2017-Nov-05 21:30N 10°58' W 074°46'0 0.0
2017-Nov-05 21:00N 10°58' W 074°46'0 0.0
2017-Nov-05 20:30N 10°58' W 074°46'1 2.2
2017-Nov-05 20:00N 10°59' W 074°46'4 8.3
2017-Nov-05 19:30N 11°02' W 074°49'4 7.7
2017-Nov-05 19:00N 11°05' W 074°51'4 7.5
2017-Nov-05 18:30N 11°08' W 074°54'2 3.2
2017-Nov-05 18:00N 11°08' W 074°56'0 0.8
2017-Nov-05 17:30N 11°07' W 074°55'0 0.9
2017-Nov-05 17:00N 11°07' W 074°56'4 8.8
2017-Nov-05 16:30N 11°06' W 074°60'2712.1
2017-Nov-05 14:17N 10°53' W 075°24'516.4
2017-Nov-05 14:00N 10°51' W 075°28'27 4.0
2017-Nov-05 07:19N 10°24' W 075°32'1 0.1
2017-Nov-04 23:30N 10°24' W 075°32'0 0.0
2017-Nov-04 23:00N 10°24' W 075°32'0 0.0
2017-Nov-04 22:30N 10°24' W 075°32'0 0.0
2017-Nov-04 21:57N 10°24' W 075°32'0 0.0
2017-Nov-04 21:24N 10°24' W 075°32'0 0.0
2017-Nov-04 20:57N 10°24' W 075°32'0 0.0
2017-Nov-04 20:30N 10°24' W 075°32'0 0.0
2017-Nov-04 19:57N 10°24' W 075°32'0 0.0
2017-Nov-04 19:18N 10°24' W 075°32'0 0.3
2017-Nov-04 19:00N 10°24' W 075°32'4 7.1
2017-Nov-04 18:30N 10°21' W 075°31'510.5
2017-Nov-04 18:00N 10°19' W 075°37'2 4.4
2017-Nov-04 17:30N 10°19' W 075°39'3 6.5
2017-Nov-04 17:00N 10°20' W 075°42'713.0
2017-Nov-04 16:30N 10°26' W 075°43'714.8
2017-Nov-04 16:00N 10°34' W 075°43'5213.7
2017-Nov-04 12:12N 11°11' W 075°06'315.0
2017-Nov-04 11:59N 11°13' W 075°03'815.5
2017-Nov-04 11:30N 11°16' W 074°56'714.5
2017-Nov-04 11:00N 11°20' W 074°50'715.0
2017-Nov-04 10:30N 11°23' W 074°43'815.4
2017-Nov-04 10:00N 11°26' W 074°36'  
Track history (hours):
 
Tides and Currents Weather Stations Pressure Air Temp Water Temp Dewpoint Dewpoint Depression Visibility Wind Speed Wind Dir Waves Ship Positions

Maersk Walvis Bay

Last reported at 2017-Nov-12 05:33 UTC. Time now 2017-Nov-21 17:22 UTC.
Position N 10°20' W 075°33'.
Warning: this ship's position is 9 days out of date.

Length 172 m; draft 8.1 m.

Type: Ship. MMSI: 355480000.

Date/timePositionNaut miles runAvg speedWind from/ knotsBaromVisibWave heightAir tempDewpointWater temp
2017-Nov-12 05:33N 10°20' W 075°33'113.2
2017-Nov-12 05:30N 10°20' W 075°32'4 1.3
2017-Nov-12 02:18N 10°24' W 075°32'0 0.0
2017-Nov-12 02:00N 10°24' W 075°32'0 0.0
2017-Nov-12 01:30N 10°24' W 075°32'0 0.0
2017-Nov-12 01:00N 10°24' W 075°32'0 0.0
2017-Nov-12 00:30N 10°24' W 075°32'0 0.0
2017-Nov-12 00:00N 10°24' W 075°32'0 0.0
2017-Nov-11 23:30N 10°24' W 075°32'0 0.0
2017-Nov-11 23:00N 10°24' W 075°32'0 0.0
2017-Nov-11 22:30N 10°24' W 075°32'0 0.0
2017-Nov-11 22:00N 10°24' W 075°32'0 0.0
2017-Nov-11 21:24N 10°24' W 075°32'0 0.0
2017-Nov-11 21:00N 10°24' W 075°32'0 0.0
2017-Nov-11 20:27N 10°24' W 075°32'0 0.0
2017-Nov-11 20:00N 10°24' W 075°32'0 0.0
2017-Nov-11 19:30N 10°24' W 075°32'0 0.0
2017-Nov-11 19:00N 10°24' W 075°32'0 0.1
2017-Nov-11 18:30N 10°24' W 075°32'2 4.8
2017-Nov-11 18:00N 10°22' W 075°32'510.1
2017-Nov-11 17:30N 10°19' W 075°36'4 7.7
2017-Nov-11 17:00N 10°20' W 075°40'4 8.7
2017-Nov-11 16:30N 10°24' W 075°43'816.3
2017-Nov-11 16:00N 10°32' W 075°41'918.6
2017-Nov-11 15:30N 10°40' W 075°36'4518.1
2017-Nov-11 13:02N 11°05' W 074°59'117.6
2017-Nov-11 13:00N 11°05' W 074°58'713.8
2017-Nov-11 12:30N 11°07' W 074°51'612.3
2017-Nov-11 11:59N 11°02' W 074°48'4 0.8
2017-Nov-11 06:53N 10°58' W 074°46'0 0.0
2017-Nov-11 06:29N 10°58' W 074°46'0 0.0
2017-Nov-11 05:59N 10°58' W 074°46'0 0.0
2017-Nov-10 23:41N 10°58' W 074°46'0 0.0
2017-Nov-10 23:29N 10°58' W 074°46'0 0.0
2017-Nov-10 20:53N 10°58' W 074°46'0 0.0
2017-Nov-10 20:29N 10°58' W 074°46'0 0.0
2017-Nov-10 19:59N 10°58' W 074°46'0 0.0
2017-Nov-10 19:29N 10°58' W 074°46'0 0.0
2017-Nov-10 18:59N 10°58' W 074°46'0 0.4
2017-Nov-10 18:30N 10°58' W 074°45'3 6.7
2017-Nov-10 18:00N 11°01' W 074°47'4 8.4
2017-Nov-10 17:30N 11°04' W 074°50'4 8.6
2017-Nov-10 17:00N 11°08' W 074°53'2 4.2
2017-Nov-10 16:30N 11°07' W 074°55'5 9.3
2017-Nov-10 16:00N 11°06' W 074°59'  
2017-Nov-07 14:11N 11°13' W 074°59'317.6
2017-Nov-07 14:00N 11°13' W 074°56'917.1
2017-Nov-07 13:30N 11°13' W 074°47'918.4
2017-Nov-07 13:00N 11°13' W 074°38'1019.1
2017-Nov-07 12:30N 11°14' W 074°28'918.5
2017-Nov-07 12:00N 11°14' W 074°18'5 1.1
2017-Nov-07 07:16N 11°15' W 074°13'0 0.1
2017-Nov-07 06:52N 11°15' W 074°13'1 2.5
2017-Nov-07 06:28N 11°15' W 074°14'1 2.2
2017-Nov-07 06:00N 11°14' W 074°15'1 1.1
2017-Nov-07 05:27N 11°14' W 074°15'3 0.6
2017-Nov-07 01:17N 11°15' W 074°18'2 3.9
2017-Nov-07 00:49N 11°14' W 074°19'613.7
2017-Nov-07 00:23N 11°13' W 074°25'718.8
2017-Nov-07 00:00N 11°12' W 074°33'1018.9
2017-Nov-06 23:29N 11°11' W 074°42'917.8
2017-Nov-06 23:00N 11°09' W 074°51'5 9.7
2017-Nov-06 22:30N 11°04' W 074°51'713.4
2017-Nov-06 22:00N 10°60' W 074°46'2 3.3
2017-Nov-06 21:30N 10°58' W 074°46'0 0.0
2017-Nov-06 21:00N 10°58' W 074°46'0 0.0
2017-Nov-06 20:30N 10°58' W 074°46'0 0.0
2017-Nov-06 02:30N 10°58' W 074°46'0 0.0
2017-Nov-06 02:00N 10°58' W 074°46'0 0.0
2017-Nov-06 01:30N 10°58' W 074°46'0 0.0
2017-Nov-06 01:00N 10°58' W 074°46'0 0.0
2017-Nov-06 00:30N 10°58' W 074°46'0 0.0
2017-Nov-06 00:00N 10°58' W 074°46'0 0.0
2017-Nov-05 23:27N 10°58' W 074°46'0 0.0
2017-Nov-05 23:00N 10°58' W 074°46'0 0.0
2017-Nov-05 22:30N 10°58' W 074°46'0 0.0
2017-Nov-05 22:00N 10°58' W 074°46'0 0.0
2017-Nov-05 21:30N 10°58' W 074°46'0 0.0
2017-Nov-05 21:00N 10°58' W 074°46'0 0.0
2017-Nov-05 20:30N 10°58' W 074°46'1 2.2
2017-Nov-05 20:00N 10°59' W 074°46'4 8.3
2017-Nov-05 19:30N 11°02' W 074°49'4 7.7
2017-Nov-05 19:00N 11°05' W 074°51'4 7.5
2017-Nov-05 18:30N 11°08' W 074°54'2 3.2
2017-Nov-05 18:00N 11°08' W 074°56'0 0.8
2017-Nov-05 17:30N 11°07' W 074°55'0 0.9
2017-Nov-05 17:00N 11°07' W 074°56'4 8.8
2017-Nov-05 16:30N 11°06' W 074°60'2712.1
2017-Nov-05 14:17N 10°53' W 075°24'516.4
2017-Nov-05 14:00N 10°51' W 075°28'27 4.0
2017-Nov-05 07:19N 10°24' W 075°32'1 0.1
2017-Nov-04 23:30N 10°24' W 075°32'0 0.0
2017-Nov-04 23:00N 10°24' W 075°32'0 0.0
2017-Nov-04 22:30N 10°24' W 075°32'0 0.0
2017-Nov-04 21:57N 10°24' W 075°32'0 0.0
2017-Nov-04 21:24N 10°24' W 075°32'0 0.0
2017-Nov-04 20:57N 10°24' W 075°32'0 0.0
2017-Nov-04 20:30N 10°24' W 075°32'0 0.0
2017-Nov-04 19:57N 10°24' W 075°32'0 0.0
2017-Nov-04 19:18N 10°24' W 075°32'0 0.3
2017-Nov-04 19:00N 10°24' W 075°32'4 7.1
2017-Nov-04 18:30N 10°21' W 075°31'510.5
2017-Nov-04 18:00N 10°19' W 075°37'2 4.4
2017-Nov-04 17:30N 10°19' W 075°39'3 6.5
2017-Nov-04 17:00N 10°20' W 075°42'713.0
2017-Nov-04 16:30N 10°26' W 075°43'714.8
2017-Nov-04 16:00N 10°34' W 075°43'5213.7
2017-Nov-04 12:12N 11°11' W 075°06'315.0
2017-Nov-04 11:59N 11°13' W 075°03'815.5
2017-Nov-04 11:30N 11°16' W 074°56'714.5
2017-Nov-04 11:00N 11°20' W 074°50'715.0
2017-Nov-04 10:30N 11°23' W 074°43'815.4
2017-Nov-04 10:00N 11°26' W 074°36'  

Dump ship's entire track history